createdAt,value
2018-05-23T00:00:42.255Z,98783.75
2018-05-23T00:03:10.522Z,98788.08
2018-05-23T00:05:38.815Z,98789.17
2018-05-23T00:08:07.087Z,98794.38
2018-05-23T00:10:35.436Z,98799.25
2018-05-23T00:13:03.707Z,98793.65
2018-05-23T00:15:32.002Z,98796.17
2018-05-23T00:18:00.266Z,98796.72
2018-05-23T00:20:28.696Z,98795.30
2018-05-23T00:22:56.945Z,98794.36
2018-05-23T00:25:25.230Z,98792.62
2018-05-23T00:27:53.487Z,98795.30
2018-05-23T00:30:22.614Z,98791.83
2018-05-23T00:32:51.660Z,98792.55
2018-05-23T00:35:19.949Z,98795.77
2018-05-23T00:37:49.314Z,98797.18
2018-05-23T00:40:17.619Z,98796.23
2018-05-23T00:42:45.873Z,98799.52
2018-05-23T00:45:14.768Z,98798.97
2018-05-23T00:47:43.117Z,98793.00
2018-05-23T00:50:11.625Z,98790.14
2018-05-23T00:52:40.251Z,98782.05
2018-05-23T00:55:21.331Z,98794.49
2018-05-23T00:57:52.390Z,98796.17
2018-05-23T01:00:21.666Z,98793.37
2018-05-23T01:02:51.821Z,98792.04
2018-05-23T01:05:20.078Z,98793.30
2018-05-23T01:07:48.372Z,98797.56
2018-05-23T01:10:17.427Z,98793.76
2018-05-23T01:12:45.756Z,98797.63
2018-05-23T01:15:14.153Z,98798.27
2018-05-23T01:17:42.511Z,98791.83
2018-05-23T01:20:12.003Z,98795.30
2018-05-23T01:22:40.458Z,98800.11
2018-05-23T01:25:09.717Z,98796.86
2018-05-23T01:27:40.455Z,98806.15
2018-05-23T01:30:08.723Z,98806.47
2018-05-23T01:32:37.148Z,98801.39
2018-05-23T01:35:07.170Z,98813.41
2018-05-23T01:37:36.369Z,98816.39
2018-05-23T01:40:05.300Z,98810.73
2018-05-23T01:42:33.561Z,98814.75
2018-05-23T01:45:10.959Z,98815.02
2018-05-23T01:47:39.214Z,98821.05
2018-05-23T01:50:07.502Z,98816.66
2018-05-23T01:52:36.237Z,98825.48
2018-05-23T01:55:05.539Z,98825.54
2018-05-23T01:57:34.531Z,98820.55
2018-05-23T02:00:02.901Z,98823.73
2018-05-23T02:02:31.225Z,98822.76
2018-05-23T02:05:00.506Z,98826.69
2018-05-23T02:07:29.115Z,98828.91
2018-05-23T02:09:58.330Z,98825.83
2018-05-23T02:12:27.686Z,98827.49
2018-05-23T02:14:56.266Z,98831.02
2018-05-23T02:17:24.529Z,98827.86
2018-05-23T02:19:53.641Z,98834.23
2018-05-23T02:22:21.941Z,98837.45
2018-05-23T02:24:50.231Z,98836.71
2018-05-23T02:27:18.501Z,98842.45
2018-05-23T02:29:46.998Z,98839.59
2018-05-23T02:32:15.267Z,98838.10
2018-05-23T02:34:43.567Z,98829.39
2018-05-23T02:37:11.835Z,98835.02
2018-05-23T02:39:40.119Z,98832.58
2018-05-23T02:42:08.415Z,98837.88
2018-05-23T02:44:36.721Z,98840.53
2018-05-23T02:47:05.092Z,98844.92
2018-05-23T02:49:33.367Z,98845.80
2018-05-23T02:52:01.639Z,98846.61
2018-05-23T02:54:29.969Z,98846.36
2018-05-23T02:56:58.235Z,98853.67
2018-05-23T02:59:26.587Z,98853.48
2018-05-23T03:01:54.978Z,98860.54
2018-05-23T03:04:23.231Z,98854.16
2018-05-23T03:06:52.363Z,98850.02
2018-05-23T03:09:20.634Z,98854.02
2018-05-23T03:11:48.914Z,98859.52
2018-05-23T03:14:17.174Z,98858.05
2018-05-23T03:16:45.454Z,98861.11
2018-05-23T03:19:13.711Z,98860.84
2018-05-23T03:21:41.987Z,98855.98
2018-05-23T03:24:10.256Z,98864.47
2018-05-23T03:26:38.546Z,98858.42
2018-05-23T03:29:07.235Z,98858.11
2018-05-23T03:31:35.498Z,98862.45
2018-05-23T03:34:04.984Z,98859.83
2018-05-23T03:36:33.312Z,98863.95
2018-05-23T03:39:02.262Z,98859.83
2018-05-23T03:41:30.674Z,98854.45
2018-05-23T03:43:58.932Z,98862.08
2018-05-23T03:46:27.218Z,98864.10
2018-05-23T03:48:55.488Z,98867.48
2018-05-23T03:51:23.794Z,98862.44
2018-05-23T03:53:52.122Z,98864.38
2018-05-23T03:56:20.412Z,98865.61
2018-05-23T03:58:48.700Z,98860.61
2018-05-23T04:01:28.817Z,98860.67
2018-05-23T04:04:09.567Z,98860.70
2018-05-23T04:06:49.547Z,98868.73
2018-05-23T04:09:17.848Z,98866.92
2018-05-23T04:11:46.163Z,98864.84
2018-05-23T04:14:14.442Z,98866.06
2018-05-23T04:16:44.451Z,98871.55
2018-05-23T04:19:12.742Z,98866.05
2018-05-23T04:21:41.015Z,98870.11
2018-05-23T04:24:09.353Z,98869.86
2018-05-23T04:26:38.731Z,98868.63
2018-05-23T04:29:07.021Z,98875.45
2018-05-23T04:31:35.416Z,98879.85
2018-05-23T04:34:03.708Z,98888.74
2018-05-23T04:36:32.542Z,98889.59
2018-05-23T04:39:01.644Z,98888.13
2018-05-23T04:41:29.926Z,98893.61
2018-05-23T04:43:58.222Z,98891.79
2018-05-23T04:46:26.490Z,98897.21
2018-05-23T04:48:54.990Z,98894.69
2018-05-23T04:51:23.256Z,98895.94
2018-05-23T04:53:51.530Z,98894.71
2018-05-23T04:56:19.803Z,98898.09
2018-05-23T04:58:48.088Z,98903.41
2018-05-23T05:01:16.371Z,98909.77
2018-05-23T05:03:44.662Z,98921.08
2018-05-23T05:06:12.974Z,98924.23
2018-05-23T05:08:41.286Z,98928.86
2018-05-23T05:11:09.543Z,98928.03
2018-05-23T05:13:37.901Z,98931.25
2018-05-23T05:16:06.097Z,98935.17
2018-05-23T05:18:34.371Z,98939.23
2018-05-23T05:21:02.690Z,98936.88
2018-05-23T05:23:30.950Z,98941.42
2018-05-23T05:25:59.257Z,98932.59
2018-05-23T05:28:27.516Z,98947.13
2018-05-23T05:30:55.803Z,98958.06
2018-05-23T05:33:24.061Z,98961.36
2018-05-23T05:35:52.357Z,98960.98
2018-05-23T05:38:20.622Z,98956.98
2018-05-23T05:40:48.899Z,98962.01
2018-05-23T05:43:17.174Z,98968.62
2018-05-23T05:45:45.454Z,98968.53
2018-05-23T05:48:13.742Z,98970.55
2018-05-23T05:50:42.345Z,98971.69
2018-05-23T05:53:10.658Z,98969.55
2018-05-23T05:55:38.943Z,98969.18
2018-05-23T05:58:07.249Z,98971.19
2018-05-23T06:00:35.675Z,98980.34
2018-05-23T06:03:03.970Z,98984.77
2018-05-23T06:05:33.175Z,98975.53
2018-05-23T06:08:01.483Z,98985.63
2018-05-23T06:10:29.757Z,98999.45
2018-05-23T06:12:58.091Z,98994.07
2018-05-23T06:15:26.922Z,98998.66
2018-05-23T06:17:55.258Z,99000.42
2018-05-23T06:20:23.581Z,98998.80
2018-05-23T06:22:51.842Z,99001.11
2018-05-23T06:25:20.106Z,98999.32
2018-05-23T06:27:48.475Z,98999.52
2018-05-23T06:30:16.796Z,98997.14
2018-05-23T06:32:45.024Z,98995.14
2018-05-23T06:35:13.289Z,98991.59
2018-05-23T06:37:42.088Z,98989.17
2018-05-23T06:40:10.331Z,98987.08
2018-05-23T06:42:38.750Z,98999.88
2018-05-23T06:45:07.538Z,98994.47
2018-05-23T06:47:35.809Z,98999.55
2018-05-23T06:50:04.627Z,98994.45
2018-05-23T06:52:32.842Z,99005.23
2018-05-23T06:55:01.154Z,99004.23
2018-05-23T06:57:30.303Z,99003.59
2018-05-23T06:59:58.575Z,99013.31
2018-05-23T07:02:27.163Z,99012.25
2018-05-23T07:04:55.477Z,99012.87
2018-05-23T07:07:23.822Z,99019.25
2018-05-23T07:09:52.135Z,99018.09
2018-05-23T07:12:20.417Z,99025.11
2018-05-23T07:14:48.750Z,99011.33
2018-05-23T07:17:17.091Z,99026.53
2018-05-23T07:19:45.367Z,99025.03
2018-05-23T07:22:13.903Z,99037.35
2018-05-23T07:24:42.547Z,99032.10
2018-05-23T07:27:10.778Z,99043.41
2018-05-23T07:29:39.767Z,99036.66
2018-05-23T07:32:08.052Z,99052.62
2018-05-23T07:34:36.321Z,99052.17
2018-05-23T07:37:04.952Z,99052.97
2018-05-23T07:39:33.402Z,99047.94
2018-05-23T07:42:01.702Z,99056.13
2018-05-23T07:44:29.953Z,99055.82
2018-05-23T07:46:58.299Z,99059.38
2018-05-23T07:49:26.559Z,99062.13
2018-05-23T07:51:54.883Z,99061.52
2018-05-23T07:54:23.136Z,99065.61
2018-05-23T07:56:51.456Z,99063.25
2018-05-23T07:59:19.793Z,99065.71
2018-05-23T08:01:48.197Z,99063.72
2018-05-23T08:04:16.479Z,99067.95
2018-05-23T08:06:45.138Z,99067.28
2018-05-23T08:09:13.410Z,99073.19
2018-05-23T08:11:41.711Z,99073.17
2018-05-23T08:14:09.955Z,99081.29
2018-05-23T08:16:38.246Z,99075.58
2018-05-23T08:19:06.546Z,99077.70
2018-05-23T08:21:35.325Z,99079.91
2018-05-23T08:24:03.578Z,99072.09
2018-05-23T08:26:31.989Z,99082.50
2018-05-23T08:29:00.677Z,99082.09
2018-05-23T08:31:28.948Z,99084.72
2018-05-23T08:33:57.233Z,99081.88
2018-05-23T08:36:25.596Z,99083.42
2018-05-23T08:38:53.809Z,99084.75
2018-05-23T08:41:22.250Z,99088.67
2018-05-23T08:43:52.066Z,99091.03
2018-05-23T08:46:20.330Z,99092.34
2018-05-23T08:48:48.641Z,99092.20
2018-05-23T08:51:16.927Z,99091.82
2018-05-23T08:53:46.075Z,99087.06
2018-05-23T08:56:14.474Z,99102.85
2018-05-23T08:58:43.020Z,99097.34
2018-05-23T09:01:11.210Z,99099.69
2018-05-23T09:03:39.500Z,99093.48
2018-05-23T09:06:07.776Z,99107.39
2018-05-23T09:08:36.045Z,99108.94
2018-05-23T09:11:05.376Z,99109.42
2018-05-23T09:13:33.651Z,99106.25
2018-05-23T09:16:01.943Z,99107.09
2018-05-23T09:18:30.422Z,99107.23
2018-05-23T09:20:58.714Z,99107.17
2018-05-23T09:23:27.032Z,99106.41
2018-05-23T09:25:55.617Z,99112.73
2018-05-23T09:28:23.974Z,99116.12
2018-05-23T09:30:52.280Z,99114.00
2018-05-23T09:33:21.751Z,99115.00
2018-05-23T09:35:50.071Z,99111.80
2018-05-23T09:38:18.441Z,99111.41
2018-05-23T09:40:46.717Z,99118.20
2018-05-23T09:43:16.036Z,99115.10
2018-05-23T09:45:44.339Z,99110.80
2018-05-23T09:48:12.998Z,99113.92
2018-05-23T09:50:41.282Z,99109.47
2018-05-23T09:53:09.820Z,99110.56
2018-05-23T09:55:38.250Z,99104.05
2018-05-23T09:58:06.716Z,99107.80
2018-05-23T10:00:35.025Z,99106.69
2018-05-23T10:03:03.656Z,99114.96
2018-05-23T10:05:32.007Z,99110.66
2018-05-23T10:08:00.337Z,99108.44
2018-05-23T10:10:28.925Z,99110.91
2018-05-23T10:12:57.725Z,99111.54
2018-05-23T10:15:25.979Z,99112.93
2018-05-23T10:17:54.314Z,99112.09
2018-05-23T10:20:22.590Z,99107.80
2018-05-23T10:22:53.093Z,99109.98
2018-05-23T10:25:21.370Z,99118.47
2018-05-23T10:27:49.646Z,99112.19
2018-05-23T10:30:17.991Z,99117.93
2018-05-23T10:32:46.262Z,99107.11
2018-05-23T10:35:14.589Z,99121.82
2018-05-23T10:37:43.922Z,99121.17
2018-05-23T10:40:12.174Z,99115.98
2018-05-23T10:42:41.696Z,99119.22
2018-05-23T10:45:13.940Z,99118.97
2018-05-23T10:47:42.226Z,99119.45
2018-05-23T10:50:11.591Z,99129.71
2018-05-23T10:52:39.965Z,99117.20
2018-05-23T10:55:08.309Z,99116.89
2018-05-23T10:57:36.576Z,99115.95
2018-05-23T11:00:05.064Z,99129.06
2018-05-23T11:02:33.348Z,99124.59
2018-05-23T11:05:01.667Z,99126.78
2018-05-23T11:07:29.941Z,99128.67
2018-05-23T11:09:58.233Z,99133.02
2018-05-23T11:12:26.527Z,99128.71
2018-05-23T11:14:54.844Z,99123.83
2018-05-23T11:17:23.205Z,99123.13
2018-05-23T11:19:51.561Z,99122.58
2018-05-23T11:22:19.790Z,99125.02
2018-05-23T11:24:48.234Z,99125.78
2018-05-23T11:27:16.511Z,99123.60
2018-05-23T11:29:44.894Z,99125.11
2018-05-23T11:32:13.181Z,99123.48
2018-05-23T11:34:43.715Z,99120.19
2018-05-23T11:37:12.034Z,99117.65
2018-05-23T11:39:40.307Z,99113.58
2018-05-23T11:42:08.619Z,99115.76
2018-05-23T11:44:36.883Z,99108.73
2018-05-23T11:47:05.470Z,99109.78
2018-05-23T11:49:33.746Z,99106.95
2018-05-23T11:52:02.414Z,99099.88
2018-05-23T11:54:31.013Z,99093.81
2018-05-23T11:56:59.262Z,99098.19
2018-05-23T11:59:27.502Z,99093.30
2018-05-23T12:01:55.815Z,99087.07
2018-05-23T12:04:24.103Z,99086.73
2018-05-23T12:06:52.394Z,99094.15
2018-05-23T12:09:21.035Z,99087.88
2018-05-23T12:11:49.512Z,99077.70
2018-05-23T12:14:17.799Z,99076.13
2018-05-23T12:16:46.101Z,99080.73
2018-05-23T12:19:14.399Z,99074.34
2018-05-23T12:21:42.691Z,99075.50
2018-05-23T12:24:11.009Z,99074.20
2018-05-23T12:26:39.251Z,99064.17
2018-05-23T12:29:07.590Z,99061.48
2018-05-23T12:31:35.866Z,99061.55
2018-05-23T12:34:05.201Z,99070.80
2018-05-23T12:36:33.588Z,99066.94
2018-05-23T12:39:01.841Z,99061.56
2018-05-23T12:41:30.134Z,99065.05
2018-05-23T12:43:59.321Z,99060.53
2018-05-23T12:46:27.703Z,99059.31
2018-05-23T12:48:56.087Z,99056.83
2018-05-23T12:51:24.372Z,99045.98
2018-05-23T12:53:52.745Z,99055.48
2018-05-23T12:56:21.028Z,99063.03
2018-05-23T12:58:49.313Z,99051.77
2018-05-23T13:01:17.590Z,99057.67
2018-05-23T13:03:45.909Z,99060.05
2018-05-23T13:06:14.223Z,99056.48
2018-05-23T13:08:42.703Z,99061.25
2018-05-23T13:11:10.964Z,99057.59
2018-05-23T13:13:39.226Z,99055.97
2018-05-23T13:16:07.550Z,99053.71
2018-05-23T13:18:35.827Z,99054.66
2018-05-23T13:21:04.886Z,99020.33
2018-05-23T13:23:33.191Z,99047.34
2018-05-23T13:26:01.540Z,99047.87
2018-05-23T13:28:29.756Z,99040.80
2018-05-23T13:30:58.317Z,99041.94
2018-05-23T13:33:26.613Z,99046.89
2018-05-23T13:35:54.917Z,99039.55
2018-05-23T13:38:23.197Z,99026.03
2018-05-23T13:40:51.527Z,99045.60
2018-05-23T13:43:19.812Z,99042.20
2018-05-23T13:45:48.077Z,99033.25
2018-05-23T13:48:16.368Z,99031.16
2018-05-23T13:50:44.643Z,99030.73
2018-05-23T13:53:13.083Z,99030.95
2018-05-23T13:55:41.350Z,99024.86
2018-05-23T13:58:09.640Z,99033.41
2018-05-23T14:00:37.915Z,99026.80
2018-05-23T14:03:06.407Z,99021.33
2018-05-23T14:05:34.653Z,99021.36
2018-05-23T14:08:02.900Z,99020.19
2018-05-23T14:10:31.225Z,99017.19
2018-05-23T14:12:59.491Z,99017.61
2018-05-23T14:15:28.035Z,99015.72
2018-05-23T14:17:56.310Z,99006.12
2018-05-23T14:20:24.569Z,99010.34
2018-05-23T14:22:52.840Z,99001.19
2018-05-23T14:25:21.123Z,99004.79
2018-05-23T14:27:49.566Z,98993.80
2018-05-23T14:30:17.837Z,98989.93
2018-05-23T14:32:46.090Z,98986.55
2018-05-23T14:35:14.382Z,98987.97
2018-05-23T14:37:42.666Z,98978.44
2018-05-23T14:40:11.034Z,98982.56
2018-05-23T14:42:39.262Z,98985.39
2018-05-23T14:45:07.543Z,98973.59
2018-05-23T14:47:35.810Z,98968.88
2018-05-23T14:50:05.055Z,98970.25
2018-05-23T14:52:34.058Z,98961.40
2018-05-23T14:55:02.339Z,98957.91
2018-05-23T14:57:30.607Z,98951.86
2018-05-23T14:59:59.423Z,98956.14
2018-05-23T15:02:28.050Z,98941.04
2018-05-23T15:04:56.391Z,98953.69
2018-05-23T15:07:24.649Z,98946.83
2018-05-23T15:09:53.246Z,98948.87
2018-05-23T15:12:21.521Z,98955.70
2018-05-23T15:14:49.797Z,98962.63
2018-05-23T15:17:18.279Z,98960.80
2018-05-23T15:19:46.543Z,98958.92
2018-05-23T15:22:17.634Z,98959.27
2018-05-23T15:24:45.897Z,98955.48
2018-05-23T15:27:14.196Z,98961.09
2018-05-23T15:29:42.469Z,98946.66
2018-05-23T15:32:10.771Z,98942.41
2018-05-23T15:34:39.038Z,98948.01
2018-05-23T15:37:07.417Z,98946.41
2018-05-23T15:39:35.743Z,98953.30
2018-05-23T15:42:05.070Z,98942.23
2018-05-23T15:44:33.386Z,98954.98
2018-05-23T15:47:01.659Z,98958.13
2018-05-23T15:49:29.958Z,98955.64
2018-05-23T15:51:58.235Z,98965.51
2018-05-23T15:54:26.536Z,98967.87
2018-05-23T15:56:54.855Z,98966.97
2018-05-23T15:59:23.174Z,98966.41
2018-05-23T16:01:51.453Z,98953.16
2018-05-23T16:04:19.747Z,98963.05
2018-05-23T16:06:48.025Z,98960.92
2018-05-23T16:09:16.399Z,98965.85
2018-05-23T16:11:44.864Z,98962.38
2018-05-23T16:14:13.934Z,98961.28
2018-05-23T16:16:42.203Z,98951.56
2018-05-23T16:19:10.550Z,98949.80
2018-05-23T16:21:39.707Z,98943.03
2018-05-23T16:24:07.988Z,98956.69
2018-05-23T16:26:36.259Z,98974.59
2018-05-23T16:29:04.575Z,98989.16
2018-05-23T16:31:32.903Z,99006.77
2018-05-23T16:34:01.225Z,99012.92
2018-05-23T16:36:29.534Z,99014.48
2018-05-23T16:38:58.182Z,99011.53
2018-05-23T16:41:26.532Z,99005.38
2018-05-23T16:43:54.839Z,99008.80
2018-05-23T16:46:23.104Z,99001.34
2018-05-23T16:48:51.375Z,99003.72
2018-05-23T16:51:19.901Z,98999.12
2018-05-23T16:53:48.157Z,99001.13
2018-05-23T16:56:16.456Z,99004.67
2018-05-23T16:58:44.737Z,99009.09
2018-05-23T17:01:13.908Z,99014.91
2018-05-23T17:03:42.167Z,99023.89
2018-05-23T17:06:10.493Z,99027.36
2018-05-23T17:08:38.747Z,99018.56
2018-05-23T17:11:07.025Z,99019.23
2018-05-23T17:13:35.441Z,99033.05
2018-05-23T17:16:04.384Z,99024.72
2018-05-23T17:18:32.633Z,99039.02
2018-05-23T17:21:00.971Z,99038.31
2018-05-23T17:23:29.234Z,99042.06
2018-05-23T17:25:57.548Z,99048.09
2018-05-23T17:28:25.830Z,99050.89
2018-05-23T17:30:54.122Z,99053.73
2018-05-23T17:33:22.473Z,99049.94
2018-05-23T17:35:50.842Z,99057.06
2018-05-23T17:38:19.239Z,99052.36
2018-05-23T17:40:47.660Z,99057.31
2018-05-23T17:43:15.954Z,99058.72
2018-05-23T17:45:44.402Z,99068.55
2018-05-23T17:48:12.781Z,99068.11
2018-05-23T17:50:41.066Z,99078.01
2018-05-23T17:53:09.371Z,99073.73
2018-05-23T17:55:38.766Z,99075.52
2018-05-23T17:58:07.045Z,99081.22
2018-05-23T18:00:35.374Z,99092.84
2018-05-23T18:03:04.962Z,99089.32
2018-05-23T18:05:33.244Z,99103.44
2018-05-23T18:08:01.545Z,99100.83
2018-05-23T18:10:29.818Z,99106.29
2018-05-23T18:12:58.231Z,99109.55
2018-05-23T18:15:26.766Z,99113.34
2018-05-23T18:17:55.059Z,99120.39
2018-05-23T18:20:23.343Z,99122.50
2018-05-23T18:22:51.608Z,99117.95
2018-05-23T18:25:19.904Z,99116.91
2018-05-23T18:27:48.216Z,99119.75
2018-05-23T18:30:16.474Z,99113.69
2018-05-23T18:32:44.749Z,99125.81
2018-05-23T18:35:13.281Z,99121.23
2018-05-23T18:37:41.545Z,99130.73
2018-05-23T18:40:09.855Z,99131.03
2018-05-23T18:42:38.131Z,99133.06
2018-05-23T18:45:06.432Z,99125.81
2018-05-23T18:47:35.338Z,99130.09
2018-05-23T18:50:03.626Z,99129.23
2018-05-23T18:52:31.909Z,99127.30
2018-05-23T18:55:00.209Z,99135.13
2018-05-23T18:57:28.603Z,99138.46
2018-05-23T18:59:57.838Z,99141.21
2018-05-23T19:02:26.081Z,99141.72
2018-05-23T19:04:54.404Z,99139.81
2018-05-23T19:07:22.667Z,99140.68
2018-05-23T19:09:51.026Z,99137.59
2018-05-23T19:12:19.302Z,99131.28
2018-05-23T19:14:47.622Z,99126.08
2018-05-23T19:17:15.901Z,99118.36
2018-05-23T19:19:44.578Z,99118.84
2018-05-23T19:22:12.816Z,99126.02
2018-05-23T19:24:41.097Z,99125.07
2018-05-23T19:27:09.426Z,99120.43
2018-05-23T19:29:37.763Z,99122.30
2018-05-23T19:32:06.011Z,99112.91
2018-05-23T19:34:34.302Z,99114.48
2018-05-23T19:37:02.609Z,99123.83
2018-05-23T19:39:31.278Z,99123.81
2018-05-23T19:41:59.555Z,99126.39
2018-05-23T19:44:27.829Z,99121.12
2018-05-23T19:46:56.103Z,99130.83
2018-05-23T19:49:24.459Z,99124.21
2018-05-23T19:51:52.743Z,99137.61
2018-05-23T19:54:21.508Z,99134.06
2018-05-23T19:56:49.800Z,99143.06
2018-05-23T19:59:18.298Z,99150.70
2018-05-23T20:01:46.857Z,99153.30
2018-05-23T20:04:15.133Z,99156.66
2018-05-23T20:06:43.496Z,99157.34
2018-05-23T20:09:11.922Z,99150.67
2018-05-23T20:11:40.269Z,99150.78
2018-05-23T20:14:08.662Z,99156.74
2018-05-23T20:16:36.894Z,99143.34
2018-05-23T20:19:05.167Z,99151.69
2018-05-23T20:21:33.454Z,99150.63
2018-05-23T20:24:01.718Z,99142.89
2018-05-23T20:26:30.007Z,99139.36
2018-05-23T20:28:58.306Z,99136.80
2018-05-23T20:31:26.596Z,99141.05
2018-05-23T20:33:54.923Z,99143.30
2018-05-23T20:36:24.112Z,99146.89
2018-05-23T20:38:52.378Z,99145.38
2018-05-23T20:41:20.670Z,99142.63
2018-05-23T20:43:48.970Z,99142.05
2018-05-23T20:46:17.311Z,99141.23
2018-05-23T20:48:45.651Z,99147.13
2018-05-23T20:51:14.215Z,99148.50
2018-05-23T20:53:42.545Z,99143.60
2018-05-23T20:56:10.809Z,99138.31
2018-05-23T20:58:39.198Z,99134.75
2018-05-23T21:01:07.584Z,99138.02
2018-05-23T21:03:35.870Z,99151.00
2018-05-23T21:06:04.433Z,99151.38
2018-05-23T21:08:32.722Z,99155.16
2018-05-23T21:11:00.981Z,99152.06
2018-05-23T21:13:29.271Z,99153.18
2018-05-23T21:15:57.604Z,99152.58
2018-05-23T21:18:25.863Z,99153.39
2018-05-23T21:20:54.151Z,99163.16
2018-05-23T21:23:22.463Z,99157.19
2018-05-23T21:25:50.985Z,99156.41
2018-05-23T21:28:19.244Z,99154.80
2018-05-23T21:30:47.540Z,99141.33
2018-05-23T21:33:15.846Z,99146.84
2018-05-23T21:35:44.113Z,99148.97
2018-05-23T21:38:12.421Z,99156.92
2018-05-23T21:40:40.878Z,99161.50
2018-05-23T21:43:09.137Z,99154.64
2018-05-23T21:45:37.423Z,99155.95
2018-05-23T21:48:05.701Z,99152.30
2018-05-23T21:50:34.034Z,99155.81
2018-05-23T21:53:02.530Z,99160.93
2018-05-23T21:55:30.910Z,99158.71
2018-05-23T21:57:59.219Z,99159.06
2018-05-23T22:00:27.520Z,99153.06
2018-05-23T22:02:55.860Z,99153.04
2018-05-23T22:05:24.142Z,99156.30
2018-05-23T22:07:52.423Z,99161.46
2018-05-23T22:10:20.714Z,99161.95
2018-05-23T22:12:48.972Z,99168.33
2018-05-23T22:15:17.330Z,99167.00
2018-05-23T22:17:45.583Z,99171.97
2018-05-23T22:20:14.675Z,99163.95
2018-05-23T22:22:42.978Z,99165.52
2018-05-23T22:25:11.339Z,99162.84
2018-05-23T22:27:39.621Z,99162.23
2018-05-23T22:30:07.931Z,99163.17
2018-05-23T22:32:36.594Z,99164.22
2018-05-23T22:35:04.857Z,99152.03
2018-05-23T22:37:33.488Z,99154.29
2018-05-23T22:40:02.114Z,99151.05
2018-05-23T22:42:30.447Z,99151.22
2018-05-23T22:44:59.335Z,99149.73
2018-05-23T22:47:28.367Z,99150.13
2018-05-23T22:49:56.642Z,99150.22
2018-05-23T22:52:24.933Z,99150.51
2018-05-23T22:54:53.224Z,99153.02
2018-05-23T22:57:21.514Z,99142.67
2018-05-23T22:59:49.799Z,99146.34
2018-05-23T23:02:19.207Z,99140.80
2018-05-23T23:04:47.484Z,99139.94
2018-05-23T23:07:16.190Z,99141.31
2018-05-23T23:09:44.595Z,99141.71
2018-05-23T23:12:13.505Z,99141.23
2018-05-23T23:14:41.798Z,99146.89
2018-05-23T23:17:10.817Z,99150.71
2018-05-23T23:19:39.738Z,99145.70
2018-05-23T23:22:08.049Z,99142.33
2018-05-23T23:24:36.708Z,99138.80
2018-05-23T23:27:05.054Z,99140.55
2018-05-23T23:29:33.355Z,99147.05
2018-05-23T23:32:01.923Z,99143.89
2018-05-23T23:34:30.227Z,99148.11
2018-05-23T23:36:58.487Z,99145.83
2018-05-23T23:39:26.783Z,99148.22
2018-05-23T23:41:55.281Z,99149.91
2018-05-23T23:44:23.602Z,99152.27
2018-05-23T23:46:51.870Z,99148.25
2018-05-23T23:49:20.763Z,99145.58
2018-05-23T23:51:49.173Z,99149.11
2018-05-23T23:54:17.478Z,99151.95
2018-05-23T23:56:45.723Z,99142.73
2018-05-23T23:59:14.018Z,99136.19
